Evadale, TX

3:26 AM CDT on August 30, 2014 (GMT -0500)
Jasper County-Bell | Change Station
CLOSE
Current Station
Airport
Location: Jasper,
Elevation: 213 ft
Nearby Weather Stations

Elev 213 ft 30.89 °N, 94.03 °W | Updated 11 minutes ago

Overcast
Overcast
74 °F
Feels Like 74 °F
N
4
Wind Variable Wind from East

Today
High -- | Low -- °F
--% Chance of Precip.
Yesterday
High -- | Low -- °F
Precip. -- in
6:51 AM 7:41 PM
Waxing Crescent, 20% visible
Pressure 29.96 in
Visibility 10.0 miles
Clouds Scattered Clouds 800 ft
Mostly Cloudy 3700 ft
Overcast 8500 ft
Dew Point 71 °F
Humidity 91%
Rainfall 0.00 in
Snow Depth Not available.
UV 0 out of 12
Pollen 6.20 out of 12
Air Quality Not available.
Flu Activity Not available.
METAR KJAS 300815Z AUTO 10003KT 10SM SCT008 BKN037 OVC085 23/22 A2996 RMK AO2 T02330218

More Conditions Fewer Conditions

Pressure 29.96 in
Visibility 10.0 miles
Clouds Scattered Clouds 800 ft
Mostly Cloudy 3700 ft
Overcast 8500 ft
Dew Point 71 °F
Humidity 91%
Rainfall 0.00 in
Snow Depth Not available.
UV 0 out of 12
Pollen 6.20 out of 12
Air Quality Not available.
Flu Activity Not available.
METAR KJAS 300815Z AUTO 10003KT 10SM SCT008 BKN037 OVC085 23/22 A2996 RMK AO2 T02330218

More Conditions Fewer Conditions

10-Day Weather Forecast

Almanac

Astronomy

Aug. 30, 2014 Rise Set
Actual Time 6:51 AM CDT 7:41 PM CDT
Civil Twilight 6:27 AM CDT 8:05 PM CDT
Nautical Twilight 5:58 AM CDT 8:34 PM CDT
Astronomical Twilight 5:28 AM CDT 9:04 PM CDT
Moon 11:17 AM CDT 10:39 PM CDT
Length of Visible Light 13h 38m
Length of Day
12h 49m
Tomorrow will be 1m 45s shorter.
Waxing Crescent, 20% of the Moon is Illuminated
Today
Waxing Crescent
Sep 2
First Quarter
Sep 8
Full
Sep 15
Last Quarter
Sep 24
New

Today's Extremes

State Highs State Lows

Community

WunderPhotos

Upload Photos

1,748,472 photos uploaded!

Nearby

Snow Depth

Station Depth Elevation
No new snow has been reported.

Earthquake Activity

City Distance Mag. Time & Date
No recent earthquake activity has been reported nearby.
Minimum magnitude displayed is 2.5.

Coastal Water Temperatures

Place Temperature
Sabine Pass North, TX 82.9 °F
Port Arthur, TX 84.9 °F
Calcasieu Pass, LA 82.0 °F
Rollover Pass, TX 79.0 °F
Galveston Bay (North Jetty), TX 82.9 °F

Nearby Weather Stations